sensor_id;sensor_type;location;lat;lon;timestamp;P1;durP1;ratioP1;P2;durP2;ratioP2
15363;SDS011;7781;49.690;6.472;2023-12-07T00:00:36;17.90;;;11.37;;
15363;SDS011;7781;49.690;6.472;2023-12-07T00:03:04;23.63;;;10.47;;
15363;SDS011;7781;49.690;6.472;2023-12-07T00:05:34;20.80;;;11.17;;
15363;SDS011;7781;49.690;6.472;2023-12-07T00:08:05;21.60;;;11.27;;
15363;SDS011;7781;49.690;6.472;2023-12-07T00:10:36;19.83;;;11.20;;
15363;SDS011;7781;49.690;6.472;2023-12-07T00:13:05;20.83;;;10.60;;
15363;SDS011;7781;49.690;6.472;2023-12-07T00:15:33;18.90;;;10.23;;
15363;SDS011;7781;49.690;6.472;2023-12-07T00:18:02;20.37;;;10.83;;
15363;SDS011;7781;49.690;6.472;2023-12-07T00:20:30;22.93;;;11.20;;
15363;SDS011;7781;49.690;6.472;2023-12-07T00:23:00;25.33;;;12.20;;
15363;SDS011;7781;49.690;6.472;2023-12-07T00:25:30;20.80;;;12.23;;
15363;SDS011;7781;49.690;6.472;2023-12-07T00:27:59;17.13;;;10.83;;
15363;SDS011;7781;49.690;6.472;2023-12-07T00:30:28;17.77;;;10.60;;
15363;SDS011;7781;49.690;6.472;2023-12-07T00:32:56;16.80;;;10.47;;
15363;SDS011;7781;49.690;6.472;2023-12-07T00:35:25;19.80;;;10.60;;
15363;SDS011;7781;49.690;6.472;2023-12-07T00:37:55;20.00;;;11.50;;
15363;SDS011;7781;49.690;6.472;2023-12-07T00:40:24;19.90;;;10.80;;
15363;SDS011;7781;49.690;6.472;2023-12-07T00:42:54;17.50;;;10.20;;
15363;SDS011;7781;49.690;6.472;2023-12-07T00:45:23;19.50;;;11.00;;
15363;SDS011;7781;49.690;6.472;2023-12-07T00:47:51;17.30;;;10.47;;
15363;SDS011;7781;49.690;6.472;2023-12-07T00:50:20;16.40;;;9.90;;
15363;SDS011;7781;49.690;6.472;2023-12-07T00:52:48;22.20;;;10.50;;
15363;SDS011;7781;49.690;6.472;2023-12-07T00:55:17;18.50;;;11.60;;
15363;SDS011;7781;49.690;6.472;2023-12-07T00:57:46;18.97;;;10.77;;
15363;SDS011;7781;49.690;6.472;2023-12-07T01:00:17;13.80;;;9.83;;
15363;SDS011;7781;49.690;6.472;2023-12-07T01:02:46;19.10;;;10.23;;
15363;SDS011;7781;49.690;6.472;2023-12-07T01:05:15;22.00;;;10.63;;
15363;SDS011;7781;49.690;6.472;2023-12-07T01:07:43;27.33;;;14.47;;
15363;SDS011;7781;49.690;6.472;2023-12-07T01:10:12;17.33;;;11.07;;
15363;SDS011;7781;49.690;6.472;2023-12-07T01:12:42;15.30;;;10.13;;
15363;SDS011;7781;49.690;6.472;2023-12-07T01:15:11;18.60;;;11.17;;
15363;SDS011;7781;49.690;6.472;2023-12-07T01:17:42;26.20;;;10.80;;
15363;SDS011;7781;49.690;6.472;2023-12-07T01:20:12;15.53;;;10.20;;
15363;SDS011;7781;49.690;6.472;2023-12-07T01:22:41;17.80;;;11.20;;
15363;SDS011;7781;49.690;6.472;2023-12-07T01:25:12;25.73;;;12.87;;
15363;SDS011;7781;49.690;6.472;2023-12-07T01:27:48;20.50;;;11.40;;
15363;SDS011;7781;49.690;6.472;2023-12-07T01:30:17;22.73;;;9.47;;
15363;SDS011;7781;49.690;6.472;2023-12-07T01:32:48;18.33;;;9.00;;
15363;SDS011;7781;49.690;6.472;2023-12-07T01:35:16;15.80;;;8.80;;
15363;SDS011;7781;49.690;6.472;2023-12-07T01:37:45;12.47;;;8.50;;
15363;SDS011;7781;49.690;6.472;2023-12-07T01:40:15;15.53;;;7.87;;
15363;SDS011;7781;49.690;6.472;2023-12-07T01:42:49;17.47;;;7.50;;
15363;SDS011;7781;49.690;6.472;2023-12-07T01:45:18;13.53;;;8.87;;
15363;SDS011;7781;49.690;6.472;2023-12-07T01:47:49;12.33;;;7.57;;
15363;SDS011;7781;49.690;6.472;2023-12-07T01:50:20;25.43;;;8.47;;
15363;SDS011;7781;49.690;6.472;2023-12-07T01:52:54;12.00;;;7.13;;
15363;SDS011;7781;49.690;6.472;2023-12-07T01:55:27;11.70;;;7.10;;
15363;SDS011;7781;49.690;6.472;2023-12-07T01:57:58;10.97;;;6.53;;
15363;SDS011;7781;49.690;6.472;2023-12-07T02:00:27;10.90;;;6.00;;
15363;SDS011;7781;49.690;6.472;2023-12-07T02:02:58;11.87;;;7.60;;
15363;SDS011;7781;49.690;6.472;2023-12-07T02:05:27;12.07;;;8.00;;
15363;SDS011;7781;49.690;6.472;2023-12-07T02:07:59;10.23;;;6.90;;
15363;SDS011;7781;49.690;6.472;2023-12-07T02:10:27;10.23;;;6.37;;
15363;SDS011;7781;49.690;6.472;2023-12-07T02:12:56;19.97;;;7.37;;
15363;SDS011;7781;49.690;6.472;2023-12-07T02:15:25;10.67;;;7.23;;
15363;SDS011;7781;49.690;6.472;2023-12-07T02:17:55;13.87;;;8.60;;
15363;SDS011;7781;49.690;6.472;2023-12-07T02:20:31;16.20;;;8.50;;
15363;SDS011;7781;49.690;6.472;2023-12-07T02:23:04;13.07;;;7.97;;
15363;SDS011;7781;49.690;6.472;2023-12-07T02:25:36;14.33;;;6.70;;
15363;SDS011;7781;49.690;6.472;2023-12-07T02:28:42;11.53;;;6.43;;
15363;SDS011;7781;49.690;6.472;2023-12-07T02:31:11;10.27;;;6.70;;
15363;SDS011;7781;49.690;6.472;2023-12-07T02:33:40;12.43;;;6.40;;
15363;SDS011;7781;49.690;6.472;2023-12-07T02:36:09;8.60;;;6.27;;
15363;SDS011;7781;49.690;6.472;2023-12-07T02:38:40;8.80;;;5.70;;
15363;SDS011;7781;49.690;6.472;2023-12-07T02:41:12;10.33;;;5.73;;
15363;SDS011;7781;49.690;6.472;2023-12-07T02:43:42;7.53;;;5.97;;
15363;SDS011;7781;49.690;6.472;2023-12-07T02:46:12;9.97;;;5.87;;
15363;SDS011;7781;49.690;6.472;2023-12-07T02:48:42;6.27;;;5.07;;
15363;SDS011;7781;49.690;6.472;2023-12-07T02:51:10;8.60;;;3.87;;
15363;SDS011;7781;49.690;6.472;2023-12-07T02:53:40;10.90;;;5.20;;
15363;SDS011;7781;49.690;6.472;2023-12-07T02:56:09;7.07;;;4.83;;
15363;SDS011;7781;49.690;6.472;2023-12-07T02:58:38;7.50;;;5.13;;
15363;SDS011;7781;49.690;6.472;2023-12-07T03:01:09;9.27;;;5.20;;
15363;SDS011;7781;49.690;6.472;2023-12-07T03:03:38;7.30;;;5.67;;
15363;SDS011;7781;49.690;6.472;2023-12-07T03:06:08;6.80;;;5.07;;
15363;SDS011;7781;49.690;6.472;2023-12-07T03:08:37;11.80;;;5.63;;
15363;SDS011;7781;49.690;6.472;2023-12-07T03:11:07;10.03;;;5.63;;
15363;SDS011;7781;49.690;6.472;2023-12-07T03:13:36;10.20;;;5.80;;
15363;SDS011;7781;49.690;6.472;2023-12-07T03:16:09;10.30;;;5.90;;
15363;SDS011;7781;49.690;6.472;2023-12-07T03:18:38;8.33;;;5.60;;
15363;SDS011;7781;49.690;6.472;2023-12-07T03:21:06;7.60;;;5.27;;
15363;SDS011;7781;49.690;6.472;2023-12-07T03:23:35;7.43;;;5.00;;
15363;SDS011;7781;49.690;6.472;2023-12-07T03:26:04;10.00;;;5.20;;
15363;SDS011;7781;49.690;6.472;2023-12-07T03:28:33;9.10;;;5.30;;
15363;SDS011;7781;49.690;6.472;2023-12-07T03:31:02;7.50;;;5.07;;
15363;SDS011;7781;49.690;6.472;2023-12-07T03:33:33;9.87;;;6.00;;
15363;SDS011;7781;49.690;6.472;2023-12-07T03:36:05;10.63;;;5.13;;
15363;SDS011;7781;49.690;6.472;2023-12-07T03:38:34;9.70;;;5.23;;
15363;SDS011;7781;49.690;6.472;2023-12-07T03:41:03;8.30;;;5.07;;
15363;SDS011;7781;49.690;6.472;2023-12-07T03:43:31;9.70;;;5.17;;
15363;SDS011;7781;49.690;6.472;2023-12-07T03:46:01;6.63;;;4.70;;
15363;SDS011;7781;49.690;6.472;2023-12-07T03:48:35;6.13;;;4.20;;
15363;SDS011;7781;49.690;6.472;2023-12-07T03:51:03;11.80;;;5.83;;
15363;SDS011;7781;49.690;6.472;2023-12-07T03:53:33;8.83;;;5.97;;
15363;SDS011;7781;49.690;6.472;2023-12-07T03:56:01;9.70;;;5.90;;
15363;SDS011;7781;49.690;6.472;2023-12-07T03:58:30;10.00;;;6.20;;
15363;SDS011;7781;49.690;6.472;2023-12-07T04:00:58;13.10;;;5.43;;
15363;SDS011;7781;49.690;6.472;2023-12-07T04:03:27;8.00;;;6.00;;
15363;SDS011;7781;49.690;6.472;2023-12-07T04:05:59;8.63;;;6.07;;
15363;SDS011;7781;49.690;6.472;2023-12-07T04:08:28;7.97;;;5.47;;
15363;SDS011;7781;49.690;6.472;2023-12-07T04:10:56;10.50;;;6.00;;
15363;SDS011;7781;49.690;6.472;2023-12-07T04:13:26;7.80;;;5.70;;
15363;SDS011;7781;49.690;6.472;2023-12-07T04:15:54;8.83;;;6.53;;
15363;SDS011;7781;49.690;6.472;2023-12-07T04:18:23;10.20;;;6.00;;
15363;SDS011;7781;49.690;6.472;2023-12-07T04:20:51;11.13;;;6.13;;
15363;SDS011;7781;49.690;6.472;2023-12-07T04:23:21;11.10;;;6.03;;
15363;SDS011;7781;49.690;6.472;2023-12-07T04:25:50;11.40;;;6.27;;
15363;SDS011;7781;49.690;6.472;2023-12-07T04:28:20;14.73;;;6.70;;
15363;SDS011;7781;49.690;6.472;2023-12-07T04:30:48;6.63;;;3.47;;
15363;SDS011;7781;49.690;6.472;2023-12-07T04:33:19;9.60;;;6.13;;
15363;SDS011;7781;49.690;6.472;2023-12-07T04:35:51;11.47;;;7.20;;
15363;SDS011;7781;49.690;6.472;2023-12-07T04:38:21;10.67;;;5.90;;
15363;SDS011;7781;49.690;6.472;2023-12-07T04:40:52;11.40;;;6.57;;
15363;SDS011;7781;49.690;6.472;2023-12-07T04:43:22;10.43;;;7.77;;
15363;SDS011;7781;49.690;6.472;2023-12-07T04:45:51;10.53;;;7.17;;
15363;SDS011;7781;49.690;6.472;2023-12-07T04:48:20;10.30;;;6.70;;
15363;SDS011;7781;49.690;6.472;2023-12-07T04:50:48;15.57;;;7.97;;
15363;SDS011;7781;49.690;6.472;2023-12-07T04:53:17;10.57;;;5.97;;
15363;SDS011;7781;49.690;6.472;2023-12-07T04:55:49;16.43;;;6.50;;
15363;SDS011;7781;49.690;6.472;2023-12-07T04:58:19;14.57;;;7.67;;
15363;SDS011;7781;49.690;6.472;2023-12-07T05:00:50;13.00;;;7.20;;
15363;SDS011;7781;49.690;6.472;2023-12-07T05:03:20;9.83;;;6.87;;
15363;SDS011;7781;49.690;6.472;2023-12-07T05:05:48;11.33;;;6.80;;
15363;SDS011;7781;49.690;6.472;2023-12-07T05:08:17;14.67;;;7.37;;
15363;SDS011;7781;49.690;6.472;2023-12-07T05:10:49;14.07;;;7.97;;
15363;SDS011;7781;49.690;6.472;2023-12-07T05:13:19;19.80;;;7.20;;
15363;SDS011;7781;49.690;6.472;2023-12-07T05:15:49;11.20;;;7.10;;
15363;SDS011;7781;49.690;6.472;2023-12-07T05:18:21;9.90;;;6.10;;
15363;SDS011;7781;49.690;6.472;2023-12-07T05:20:50;13.80;;;7.40;;
15363;SDS011;7781;49.690;6.472;2023-12-07T05:23:18;8.90;;;5.87;;
15363;SDS011;7781;49.690;6.472;2023-12-07T05:25:49;11.47;;;7.40;;
15363;SDS011;7781;49.690;6.472;2023-12-07T05:28:18;14.70;;;8.10;;
15363;SDS011;7781;49.690;6.472;2023-12-07T05:30:46;8.97;;;5.87;;
15363;SDS011;7781;49.690;6.472;2023-12-07T05:33:15;9.63;;;7.07;;
15363;SDS011;7781;49.690;6.472;2023-12-07T05:35:45;9.10;;;6.23;;
15363;SDS011;7781;49.690;6.472;2023-12-07T05:38:14;12.03;;;7.17;;
15363;SDS011;7781;49.690;6.472;2023-12-07T05:40:43;10.40;;;7.03;;
15363;SDS011;7781;49.690;6.472;2023-12-07T05:43:15;17.77;;;6.57;;
15363;SDS011;7781;49.690;6.472;2023-12-07T05:45:45;11.33;;;6.87;;
15363;SDS011;7781;49.690;6.472;2023-12-07T05:48:15;10.00;;;7.57;;
15363;SDS011;7781;49.690;6.472;2023-12-07T05:50:43;13.10;;;7.70;;
15363;SDS011;7781;49.690;6.472;2023-12-07T05:53:12;13.10;;;7.30;;
15363;SDS011;7781;49.690;6.472;2023-12-07T05:55:40;11.20;;;7.57;;
15363;SDS011;7781;49.690;6.472;2023-12-07T05:58:10;13.40;;;7.70;;
15363;SDS011;7781;49.690;6.472;2023-12-07T06:00:42;16.53;;;7.70;;
15363;SDS011;7781;49.690;6.472;2023-12-07T06:03:13;13.57;;;7.20;;
15363;SDS011;7781;49.690;6.472;2023-12-07T06:05:44;12.60;;;8.40;;
15363;SDS011;7781;49.690;6.472;2023-12-07T06:08:13;14.20;;;8.40;;
15363;SDS011;7781;49.690;6.472;2023-12-07T06:10:41;13.07;;;8.77;;
15363;SDS011;7781;49.690;6.472;2023-12-07T06:13:10;11.87;;;8.03;;
15363;SDS011;7781;49.690;6.472;2023-12-07T06:15:41;10.47;;;6.93;;
15363;SDS011;7781;49.690;6.472;2023-12-07T06:18:10;10.83;;;7.43;;
15363;SDS011;7781;49.690;6.472;2023-12-07T06:20:39;11.70;;;7.13;;
15363;SDS011;7781;49.690;6.472;2023-12-07T06:23:08;12.00;;;7.00;;
15363;SDS011;7781;49.690;6.472;2023-12-07T06:25:39;9.60;;;7.07;;
15363;SDS011;7781;49.690;6.472;2023-12-07T06:28:08;12.60;;;6.67;;
15363;SDS011;7781;49.690;6.472;2023-12-07T06:30:36;11.43;;;7.17;;
15363;SDS011;7781;49.690;6.472;2023-12-07T06:33:08;11.90;;;5.90;;
15363;SDS011;7781;49.690;6.472;2023-12-07T06:35:37;11.90;;;6.67;;
15363;SDS011;7781;49.690;6.472;2023-12-07T06:38:05;14.07;;;7.47;;
15363;SDS011;7781;49.690;6.472;2023-12-07T06:40:34;10.77;;;7.30;;
15363;SDS011;7781;49.690;6.472;2023-12-07T06:43:03;11.53;;;7.07;;
15363;SDS011;7781;49.690;6.472;2023-12-07T06:45:32;11.03;;;7.67;;
15363;SDS011;7781;49.690;6.472;2023-12-07T06:48:00;17.53;;;8.23;;
15363;SDS011;7781;49.690;6.472;2023-12-07T06:50:31;12.00;;;7.47;;
15363;SDS011;7781;49.690;6.472;2023-12-07T06:53:00;14.23;;;6.87;;
15363;SDS011;7781;49.690;6.472;2023-12-07T06:55:30;11.93;;;6.90;;
15363;SDS011;7781;49.690;6.472;2023-12-07T06:58:03;13.07;;;8.47;;
15363;SDS011;7781;49.690;6.472;2023-12-07T07:00:33;11.37;;;7.57;;
15363;SDS011;7781;49.690;6.472;2023-12-07T07:03:02;11.33;;;6.60;;
15363;SDS011;7781;49.690;6.472;2023-12-07T07:05:33;9.63;;;6.37;;
15363;SDS011;7781;49.690;6.472;2023-12-07T07:08:02;12.13;;;6.60;;
15363;SDS011;7781;49.690;6.472;2023-12-07T07:10:34;14.03;;;7.90;;
15363;SDS011;7781;49.690;6.472;2023-12-07T07:13:03;9.77;;;6.07;;
15363;SDS011;7781;49.690;6.472;2023-12-07T07:15:32;12.10;;;7.23;;
15363;SDS011;7781;49.690;6.472;2023-12-07T07:18:05;8.93;;;6.20;;
15363;SDS011;7781;49.690;6.472;2023-12-07T07:20:35;11.73;;;6.70;;
15363;SDS011;7781;49.690;6.472;2023-12-07T07:23:04;8.53;;;6.20;;
15363;SDS011;7781;49.690;6.472;2023-12-07T07:25:36;7.73;;;5.13;;
15363;SDS011;7781;49.690;6.472;2023-12-07T07:28:05;11.33;;;6.23;;
15363;SDS011;7781;49.690;6.472;2023-12-07T07:30:35;9.40;;;5.67;;
15363;SDS011;7781;49.690;6.472;2023-12-07T07:33:08;7.83;;;5.20;;
15363;SDS011;7781;49.690;6.472;2023-12-07T07:35:38;10.13;;;5.20;;
15363;SDS011;7781;49.690;6.472;2023-12-07T07:38:06;9.43;;;5.57;;
15363;SDS011;7781;49.690;6.472;2023-12-07T07:40:35;9.30;;;4.80;;
15363;SDS011;7781;49.690;6.472;2023-12-07T07:43:04;11.47;;;5.77;;
15363;SDS011;7781;49.690;6.472;2023-12-07T07:45:33;9.47;;;5.43;;
15363;SDS011;7781;49.690;6.472;2023-12-07T07:48:02;8.57;;;5.40;;
15363;SDS011;7781;49.690;6.472;2023-12-07T07:50:32;7.40;;;5.40;;
15363;SDS011;7781;49.690;6.472;2023-12-07T07:53:04;9.23;;;4.97;;
15363;SDS011;7781;49.690;6.472;2023-12-07T07:55:33;12.50;;;6.30;;
15363;SDS011;7781;49.690;6.472;2023-12-07T07:58:02;8.97;;;5.67;;
15363;SDS011;7781;49.690;6.472;2023-12-07T08:00:31;12.50;;;5.20;;
15363;SDS011;7781;49.690;6.472;2023-12-07T08:03:01;9.13;;;5.67;;
15363;SDS011;7781;49.690;6.472;2023-12-07T08:05:29;9.03;;;5.20;;
15363;SDS011;7781;49.690;6.472;2023-12-07T08:07:58;7.67;;;5.30;;
15363;SDS011;7781;49.690;6.472;2023-12-07T08:10:28;9.27;;;5.87;;
15363;SDS011;7781;49.690;6.472;2023-12-07T08:12:57;7.53;;;5.40;;
15363;SDS011;7781;49.690;6.472;2023-12-07T08:15:25;11.10;;;7.40;;
15363;SDS011;7781;49.690;6.472;2023-12-07T08:17:54;10.10;;;6.43;;
15363;SDS011;7781;49.690;6.472;2023-12-07T08:20:22;11.20;;;7.00;;
15363;SDS011;7781;49.690;6.472;2023-12-07T08:22:51;9.40;;;7.20;;
15363;SDS011;7781;49.690;6.472;2023-12-07T08:25:21;14.37;;;6.30;;
15363;SDS011;7781;49.690;6.472;2023-12-07T08:27:51;8.77;;;6.50;;
15363;SDS011;7781;49.690;6.472;2023-12-07T08:30:19;11.10;;;6.10;;
15363;SDS011;7781;49.690;6.472;2023-12-07T08:32:48;10.20;;;6.00;;
15363;SDS011;7781;49.690;6.472;2023-12-07T08:35:17;10.40;;;6.47;;
15363;SDS011;7781;49.690;6.472;2023-12-07T08:37:45;11.93;;;6.63;;
15363;SDS011;7781;49.690;6.472;2023-12-07T08:40:13;11.10;;;6.37;;
15363;SDS011;7781;49.690;6.472;2023-12-07T08:42:45;10.43;;;6.07;;
15363;SDS011;7781;49.690;6.472;2023-12-07T08:45:19;11.63;;;6.20;;
15363;SDS011;7781;49.690;6.472;2023-12-07T08:47:48;14.00;;;6.10;;
15363;SDS011;7781;49.690;6.472;2023-12-07T08:50:17;8.80;;;5.80;;
15363;SDS011;7781;49.690;6.472;2023-12-07T08:52:46;10.93;;;6.23;;
15363;SDS011;7781;49.690;6.472;2023-12-07T08:55:22;13.37;;;6.73;;
15363;SDS011;7781;49.690;6.472;2023-12-07T08:57:52;15.87;;;6.90;;
15363;SDS011;7781;49.690;6.472;2023-12-07T09:00:23;10.17;;;6.37;;
15363;SDS011;7781;49.690;6.472;2023-12-07T09:02:53;13.93;;;6.93;;
15363;SDS011;7781;49.690;6.472;2023-12-07T09:05:23;9.80;;;5.83;;
15363;SDS011;7781;49.690;6.472;2023-12-07T09:07:52;8.23;;;5.60;;
15363;SDS011;7781;49.690;6.472;2023-12-07T09:10:20;10.87;;;6.70;;
15363;SDS011;7781;49.690;6.472;2023-12-07T09:12:51;11.40;;;6.60;;
15363;SDS011;7781;49.690;6.472;2023-12-07T09:15:23;10.47;;;5.90;;
15363;SDS011;7781;49.690;6.472;2023-12-07T09:17:51;10.57;;;6.77;;
15363;SDS011;7781;49.690;6.472;2023-12-07T09:20:21;11.97;;;6.33;;
15363;SDS011;7781;49.690;6.472;2023-12-07T09:22:51;11.23;;;6.90;;
15363;SDS011;7781;49.690;6.472;2023-12-07T09:25:21;11.93;;;5.60;;
15363;SDS011;7781;49.690;6.472;2023-12-07T09:27:50;10.27;;;6.83;;
15363;SDS011;7781;49.690;6.472;2023-12-07T09:30:19;11.80;;;7.23;;
15363;SDS011;7781;49.690;6.472;2023-12-07T09:32:49;10.07;;;6.73;;
15363;SDS011;7781;49.690;6.472;2023-12-07T09:35:18;11.17;;;6.60;;
15363;SDS011;7781;49.690;6.472;2023-12-07T09:37:47;11.23;;;6.40;;
15363;SDS011;7781;49.690;6.472;2023-12-07T09:40:17;13.93;;;5.90;;
15363;SDS011;7781;49.690;6.472;2023-12-07T09:42:48;9.57;;;6.40;;
15363;SDS011;7781;49.690;6.472;2023-12-07T09:45:18;10.33;;;6.53;;
15363;SDS011;7781;49.690;6.472;2023-12-07T09:47:53;8.60;;;5.87;;
15363;SDS011;7781;49.690;6.472;2023-12-07T09:50:22;12.77;;;7.03;;
15363;SDS011;7781;49.690;6.472;2023-12-07T09:52:52;10.47;;;6.83;;
15363;SDS011;7781;49.690;6.472;2023-12-07T09:55:34;11.73;;;6.10;;
15363;SDS011;7781;49.690;6.472;2023-12-07T09:58:04;8.97;;;5.93;;
15363;SDS011;7781;49.690;6.472;2023-12-07T10:00:36;11.27;;;6.40;;
15363;SDS011;7781;49.690;6.472;2023-12-07T10:03:07;9.50;;;6.53;;
15363;SDS011;7781;49.690;6.472;2023-12-07T10:05:53;11.60;;;6.60;;
15363;SDS011;7781;49.690;6.472;2023-12-07T10:08:26;11.00;;;6.40;;
15363;SDS011;7781;49.690;6.472;2023-12-07T10:11:04;9.63;;;6.87;;
15363;SDS011;7781;49.690;6.472;2023-12-07T10:13:34;16.10;;;7.10;;
15363;SDS011;7781;49.690;6.472;2023-12-07T10:16:05;10.00;;;6.17;;
15363;SDS011;7781;49.690;6.472;2023-12-07T10:18:44;14.90;;;7.77;;
15363;SDS011;7781;49.690;6.472;2023-12-07T10:21:12;12.03;;;7.23;;
15363;SDS011;7781;49.690;6.472;2023-12-07T10:23:42;12.40;;;6.43;;
15363;SDS011;7781;49.690;6.472;2023-12-07T10:26:15;14.63;;;7.37;;
15363;SDS011;7781;49.690;6.472;2023-12-07T10:28:49;7.80;;;6.50;;
15363;SDS011;7781;49.690;6.472;2023-12-07T10:31:20;13.03;;;6.20;;
15363;SDS011;7781;49.690;6.472;2023-12-07T10:33:52;10.23;;;6.20;;
15363;SDS011;7781;49.690;6.472;2023-12-07T10:36:20;12.17;;;6.40;;
15363;SDS011;7781;49.690;6.472;2023-12-07T10:38:49;9.13;;;6.73;;
15363;SDS011;7781;49.690;6.472;2023-12-07T10:41:19;6.33;;;5.10;;
15363;SDS011;7781;49.690;6.472;2023-12-07T10:43:48;11.20;;;6.30;;
15363;SDS011;7781;49.690;6.472;2023-12-07T10:46:22;8.63;;;6.20;;
15363;SDS011;7781;49.690;6.472;2023-12-07T10:48:54;8.97;;;5.90;;
15363;SDS011;7781;49.690;6.472;2023-12-07T10:51:29;10.10;;;6.00;;
15363;SDS011;7781;49.690;6.472;2023-12-07T10:54:00;11.33;;;7.30;;
15363;SDS011;7781;49.690;6.472;2023-12-07T10:56:33;10.23;;;6.80;;
15363;SDS011;7781;49.690;6.472;2023-12-07T10:59:08;12.63;;;6.97;;
15363;SDS011;7781;49.690;6.472;2023-12-07T11:01:52;11.10;;;6.20;;
15363;SDS011;7781;49.690;6.472;2023-12-07T11:04:23;9.77;;;6.23;;
15363;SDS011;7781;49.690;6.472;2023-12-07T11:06:56;9.47;;;5.93;;
15363;SDS011;7781;49.690;6.472;2023-12-07T11:09:35;11.77;;;6.37;;
15363;SDS011;7781;49.690;6.472;2023-12-07T11:12:11;12.10;;;6.50;;
15363;SDS011;7781;49.690;6.472;2023-12-07T11:14:46;16.73;;;7.07;;
15363;SDS011;7781;49.690;6.472;2023-12-07T11:17:15;9.80;;;6.33;;
15363;SDS011;7781;49.690;6.472;2023-12-07T11:19:45;10.67;;;6.30;;
15363;SDS011;7781;49.690;6.472;2023-12-07T11:22:14;10.90;;;6.53;;
15363;SDS011;7781;49.690;6.472;2023-12-07T11:24:53;13.10;;;5.93;;
15363;SDS011;7781;49.690;6.472;2023-12-07T11:27:32;13.33;;;6.03;;
15363;SDS011;7781;49.690;6.472;2023-12-07T11:30:02;11.37;;;6.60;;
15363;SDS011;7781;49.690;6.472;2023-12-07T11:32:32;9.57;;;5.93;;
15363;SDS011;7781;49.690;6.472;2023-12-07T11:35:03;7.90;;;5.47;;
15363;SDS011;7781;49.690;6.472;2023-12-07T11:38:00;15.13;;;7.13;;
15363;SDS011;7781;49.690;6.472;2023-12-07T11:40:32;8.80;;;6.53;;
15363;SDS011;7781;49.690;6.472;2023-12-07T11:43:04;11.23;;;5.93;;
15363;SDS011;7781;49.690;6.472;2023-12-07T11:45:39;9.37;;;6.10;;
15363;SDS011;7781;49.690;6.472;2023-12-07T11:48:09;9.17;;;5.80;;
15363;SDS011;7781;49.690;6.472;2023-12-07T11:53:37;10.80;;;6.30;;
15363;SDS011;7781;49.690;6.472;2023-12-07T11:56:07;9.60;;;6.07;;
15363;SDS011;7781;49.690;6.472;2023-12-07T11:58:39;11.60;;;6.37;;
15363;SDS011;7781;49.690;6.472;2023-12-07T12:01:08;10.77;;;6.13;;
15363;SDS011;7781;49.690;6.472;2023-12-07T12:03:37;9.50;;;6.30;;
15363;SDS011;7781;49.690;6.472;2023-12-07T12:06:09;9.53;;;5.43;;
15363;SDS011;7781;49.690;6.472;2023-12-07T12:08:39;13.23;;;6.27;;
15363;SDS011;7781;49.690;6.472;2023-12-07T12:11:10;8.73;;;5.83;;
15363;SDS011;7781;49.690;6.472;2023-12-07T12:13:39;7.47;;;5.10;;
15363;SDS011;7781;49.690;6.472;2023-12-07T12:16:08;7.70;;;4.87;;
15363;SDS011;7781;49.690;6.472;2023-12-07T12:18:37;8.77;;;5.30;;
15363;SDS011;7781;49.690;6.472;2023-12-07T12:21:06;9.60;;;6.30;;
15363;SDS011;7781;49.690;6.472;2023-12-07T12:23:37;10.97;;;6.30;;
15363;SDS011;7781;49.690;6.472;2023-12-07T12:26:06;7.13;;;5.47;;
15363;SDS011;7781;49.690;6.472;2023-12-07T12:28:36;7.83;;;5.27;;
15363;SDS011;7781;49.690;6.472;2023-12-07T12:31:10;10.50;;;6.03;;
15363;SDS011;7781;49.690;6.472;2023-12-07T12:33:40;7.27;;;4.97;;
15363;SDS011;7781;49.690;6.472;2023-12-07T12:36:10;7.97;;;5.43;;
15363;SDS011;7781;49.690;6.472;2023-12-07T12:38:39;12.03;;;5.93;;
15363;SDS011;7781;49.690;6.472;2023-12-07T12:41:10;9.23;;;5.70;;
15363;SDS011;7781;49.690;6.472;2023-12-07T12:43:42;10.77;;;7.03;;
15363;SDS011;7781;49.690;6.472;2023-12-07T12:46:11;8.97;;;5.93;;
15363;SDS011;7781;49.690;6.472;2023-12-07T12:48:53;7.37;;;5.30;;
15363;SDS011;7781;49.690;6.472;2023-12-07T12:51:25;14.13;;;5.87;;
15363;SDS011;7781;49.690;6.472;2023-12-07T12:53:55;9.93;;;5.80;;
15363;SDS011;7781;49.690;6.472;2023-12-07T12:56:27;8.07;;;5.00;;
15363;SDS011;7781;49.690;6.472;2023-12-07T12:58:55;8.13;;;5.30;;
15363;SDS011;7781;49.690;6.472;2023-12-07T13:01:30;10.03;;;5.50;;
15363;SDS011;7781;49.690;6.472;2023-12-07T13:04:01;8.80;;;5.37;;
15363;SDS011;7781;49.690;6.472;2023-12-07T13:06:32;8.80;;;5.97;;
15363;SDS011;7781;49.690;6.472;2023-12-07T13:09:00;7.87;;;4.70;;
15363;SDS011;7781;49.690;6.472;2023-12-07T13:11:29;12.93;;;5.40;;
15363;SDS011;7781;49.690;6.472;2023-12-07T13:13:57;7.47;;;4.73;;
15363;SDS011;7781;49.690;6.472;2023-12-07T13:16:26;8.47;;;4.40;;
15363;SDS011;7781;49.690;6.472;2023-12-07T13:18:55;7.83;;;4.90;;
15363;SDS011;7781;49.690;6.472;2023-12-07T13:21:24;7.33;;;4.70;;
15363;SDS011;7781;49.690;6.472;2023-12-07T13:23:54;7.83;;;4.73;;
15363;SDS011;7781;49.690;6.472;2023-12-07T13:26:29;8.60;;;5.00;;
15363;SDS011;7781;49.690;6.472;2023-12-07T13:28:57;6.13;;;4.17;;
15363;SDS011;7781;49.690;6.472;2023-12-07T13:31:28;6.90;;;4.30;;
15363;SDS011;7781;49.690;6.472;2023-12-07T13:33:58;9.77;;;5.30;;
15363;SDS011;7781;49.690;6.472;2023-12-07T13:36:37;6.47;;;5.10;;
15363;SDS011;7781;49.690;6.472;2023-12-07T13:39:07;9.00;;;5.07;;
15363;SDS011;7781;49.690;6.472;2023-12-07T13:41:45;10.90;;;5.13;;
15363;SDS011;7781;49.690;6.472;2023-12-07T13:44:15;6.50;;;4.40;;
15363;SDS011;7781;49.690;6.472;2023-12-07T13:46:54;7.60;;;5.90;;
15363;SDS011;7781;49.690;6.472;2023-12-07T13:49:24;6.60;;;4.70;;
15363;SDS011;7781;49.690;6.472;2023-12-07T13:51:59;10.67;;;6.57;;
15363;SDS011;7781;49.690;6.472;2023-12-07T13:54:35;10.07;;;4.60;;
15363;SDS011;7781;49.690;6.472;2023-12-07T13:57:07;7.20;;;4.70;;
15363;SDS011;7781;49.690;6.472;2023-12-07T13:59:37;6.90;;;4.73;;
15363;SDS011;7781;49.690;6.472;2023-12-07T14:02:06;7.10;;;4.80;;
15363;SDS011;7781;49.690;6.472;2023-12-07T14:04:35;11.70;;;5.03;;
15363;SDS011;7781;49.690;6.472;2023-12-07T14:07:07;12.43;;;6.00;;
15363;SDS011;7781;49.690;6.472;2023-12-07T14:09:41;9.67;;;5.03;;
15363;SDS011;7781;49.690;6.472;2023-12-07T14:12:23;7.53;;;4.40;;
15363;SDS011;7781;49.690;6.472;2023-12-07T14:14:56;5.20;;;4.33;;
15363;SDS011;7781;49.690;6.472;2023-12-07T14:17:26;9.40;;;5.10;;
15363;SDS011;7781;49.690;6.472;2023-12-07T14:20:10;8.37;;;4.63;;
15363;SDS011;7781;49.690;6.472;2023-12-07T14:22:59;8.83;;;5.33;;
15363;SDS011;7781;49.690;6.472;2023-12-07T14:25:32;8.57;;;5.37;;
15363;SDS011;7781;49.690;6.472;2023-12-07T14:28:01;9.30;;;4.87;;
15363;SDS011;7781;49.690;6.472;2023-12-07T14:30:29;9.43;;;5.77;;
15363;SDS011;7781;49.690;6.472;2023-12-07T14:33:03;8.70;;;4.80;;
15363;SDS011;7781;49.690;6.472;2023-12-07T14:35:32;10.83;;;5.40;;
15363;SDS011;7781;49.690;6.472;2023-12-07T14:38:05;11.43;;;4.70;;
15363;SDS011;7781;49.690;6.472;2023-12-07T14:40:35;7.23;;;4.17;;
15363;SDS011;7781;49.690;6.472;2023-12-07T14:43:04;7.63;;;4.23;;
15363;SDS011;7781;49.690;6.472;2023-12-07T14:45:33;5.90;;;3.70;;
15363;SDS011;7781;49.690;6.472;2023-12-07T14:48:03;4.53;;;3.47;;
15363;SDS011;7781;49.690;6.472;2023-12-07T14:50:33;6.13;;;4.10;;
15363;SDS011;7781;49.690;6.472;2023-12-07T14:53:01;7.90;;;4.40;;
15363;SDS011;7781;49.690;6.472;2023-12-07T14:55:30;8.83;;;4.50;;
15363;SDS011;7781;49.690;6.472;2023-12-07T14:58:01;4.60;;;3.40;;
15363;SDS011;7781;49.690;6.472;2023-12-07T15:00:29;5.90;;;3.80;;
15363;SDS011;7781;49.690;6.472;2023-12-07T15:02:58;6.93;;;3.97;;
15363;SDS011;7781;49.690;6.472;2023-12-07T15:05:27;7.73;;;4.67;;
15363;SDS011;7781;49.690;6.472;2023-12-07T15:07:56;7.50;;;3.70;;
15363;SDS011;7781;49.690;6.472;2023-12-07T15:10:25;7.33;;;4.57;;
15363;SDS011;7781;49.690;6.472;2023-12-07T15:12:54;8.10;;;4.63;;
15363;SDS011;7781;49.690;6.472;2023-12-07T15:15:24;7.90;;;4.97;;